ADDS METAR Data INFO
IDs: Format: Raw Decoded Include TAF

Data at: 1309 UTC 11 Dec 2017

KINL 111255Z AUTO 01004KT 7SM OVC016 M07/M09 A2974 RMK AO2 SNE14 SLP097 P0001 T10671089 $
KINL 111206Z AUTO 04003KT 3SM -SN BR OVC018 M07/M09 A2971 RMK AO2 P0001 T10671089 $
KINL 111155Z AUTO 03003KT 1 1/4SM -SN BR BKN018 OVC024 M07/M09 A2971 RMK AO2 SLP089 P0001 60009 70009 T10671089 11067 21094 53011 $
KINL 111141Z AUTO 03003KT 1 1/4SM -SN BR OVC024 M07/M09 A2971 RMK AO2 P0001 T10671089 $
KINL 111114Z AUTO 00000KT 3/4SM -SN BR OVC026 M07/M09 A2969 RMK AO2 P0001 T10671089 $
KINL 111106Z AUTO 00000KT 1SM -SN BR OVC025 M07/M09 A2968 RMK AO2 P0001 T10671089 $
KINL 111055Z AUTO 00000KT 3/4SM -SN BR OVC023 M07/M09 A2967 RMK AO2 SLP075 P0000 T10721089 $
KINL 111050Z AUTO 00000KT 3/4SM -SN BR OVC023 M07/M09 A2967 RMK AO2 P0000 $
KINL 111028Z AUTO VRB03KT 1SM -SN BR SCT018 OVC024 M07/M09 A2967 RMK AO2 P0000 T10721089 $
KINL 111019Z AUTO 16004KT 3/4SM -SN BR FEW016 OVC024 M07/M09 A2967 RMK AO2 P0000 T10721094 $
KINL 110955Z AUTO 15005KT 1SM -SN BR OVC026 M07/M09 A2968 RMK AO2 SLP075 P0002 T10721094 $
KINL 110924Z AUTO 15004KT 3/4SM -SN BR OVC029 M08/M09 A2970 RMK AO2 P0001 T10781094 $
KINL 110915Z AUTO 15004KT 1SM -SN BR OVC035 M08/M10 A2970 RMK AO2 P0001 T10781100 $
KINL 110855Z AUTO 15005KT 3/4SM -SN BR OVC031 M08/M10 A2971 RMK AO2 SLP085 P0002 60006 T10781100 56034 $
KINL 110836Z AUTO 15004KT 3/4SM -SN BR OVC031 M08/M11 A2972 RMK AO2 P0002 T10831106 $
KINL 110755Z AUTO 14007KT 3/4SM -SN BR OVC027 M09/M11 A2973 RMK AO2 SLP092 P0002 T10891111 $
KINL 110712Z AUTO VRB04KT 1/2SM SN FZFG OVC025 M09/M11 A2976 RMK AO2 P0000 T10891111 $
KINL 110655Z AUTO 15006KT 3/4SM -SN BR OVC033 M09/M12 A2976 RMK AO2 SLP105 P0002 T10941117 $
KINL 110640Z AUTO 15006KT 1SM -SN BR OVC033 M09/M12 A2977 RMK AO2 P0002 T10941117 $
KINL 110605Z AUTO 16006KT 1/2SM -SN FZFG OVC024 M09/M12 A2980 RMK AO2 P0000 T10941117 $
KINL 110555Z AUTO 15005KT 1/2SM SN OVC032 M09/M12 A2981 RMK AO2 SNB28 SLP121 P0000 60000 I6000 T10941122 11094 21167 410721167 58024 $
KINL 110533Z AUTO 15005KT 1 3/4SM -SN BKN050 OVC070 M10/M13 A2983 RMK AO2 SNB28 P0000 T11001128 $
KINL 110507Z AUTO 14006KT 10SM FEW014 BKN075 OVC090 M11/M13 A2985 RMK AO2 T11111133 $
KINL 110455Z AUTO 14005KT 10SM BKN014 OVC090 M12/M14 A2986 RMK AO2 SLP138 T11171139 $
KINL 110442Z AUTO 13005KT 10SM OVC015 M12/M14 A2986 RMK AO2 T11171139 $
KINL 110355Z AUTO 13005KT 10SM OVC012 M12/M14 A2988 RMK AO2 SLP147 T11171139 $
KINL 110339Z AUTO 12003KT 10SM OVC012 M13/M15 A2989 RMK AO2 T11281150 $
KINL 110320Z AUTO 00000KT 10SM BKN015 M13/M16 A2991 RMK AO2 T11331161 $
KINL 110255Z AUTO 00000KT 10SM FEW014 M13/M15 A2991 RMK AO2 SLP157 I3000 T11281150 56020 $
KINL 110244Z AUTO 13003KT 10SM SCT015 M13/M15 A2991 RMK AO2 T11281150 $
KINL 110205Z AUTO 00000KT 10SM BKN016 M16/M18 A2994 RMK AO2 T11561183 $
KINL 110155Z AUTO 00000KT 10SM SCT015 M16/M17 A2994 RMK AO2 SLP166 I1000 T11561172 $
KINL 110131Z AUTO 15003KT 10SM SCT016 M14/M16 A2993 RMK AO2 I1000 T11441161 $
KINL 110055Z AUTO 17003KT 10SM OVC017 M15/M17 A2995 RMK AO2 SLP170 T11501167 $
KINL 110027Z AUTO 00000KT 10SM BKN017 M16/M17 A2996 RMK AO2 T11561172 $
KINL 102355Z AUTO 00000KT 9SM FEW017 M16/M18 A2997 RMK AO2 SLP179 60000 T11611178 11072 21161 56012 $
KINL 102316Z AUTO 00000KT 10SM BKN017 M14/M16 A3000 RMK AO2 T11391161 $
KINL 102255Z AUTO 00000KT 10SM CLR M13/M15 A3000 RMK AO2 SLP187 T11331150 $
KINL 102204Z AUTO 00000KT 10SM SCT019 M10/M14 A3001 RMK AO2 T11001139 $
KINL 102155Z AUTO 32003KT 10SM BKN019 M09/M13 A3001 RMK AO2 SLP189 T10941133 $
KINL 102055Z AUTO 28005KT 10SM BKN019 M09/M13 A3000 RMK AO2 SNE00B09E19 SLP185 P0000 60000 T10891133 53002 $
KINL 102018Z AUTO 27005KT 3SM -SN OVC018 M08/M13 A2999 RMK AO2 SNE00B09 P0000 T10781128 $
KINL 102007Z AUTO 30003KT 1 3/4SM HZ OVC018 M08/M12 A2999 RMK AO2 SNE00 P0000 T10831122 $
KINL 102002Z AUTO 31004KT 3SM HZ OVC018 M08/M13 A2999 RMK AO2 SNE00 P0000 T10831128 $
KINL 101955Z AUTO 33004KT 1 3/4SM -SN OVC018 M08/M13 A2999 RMK AO2 VIS 1 1/4V3 SNE44B51 SLP182 P0000 T10831128 $
KINL 101950Z AUTO 35004KT 1 1/2SM HZ OVC018 M08/M13 A2999 RMK AO2 SNE44 P0000 $
KINL 101943Z AUTO 33003KT 2SM -SN OVC019 M08/M13 A3000 RMK AO2 P0000 T10831128 $
KINL 101925Z AUTO 34005KT 4SM -SN OVC018 M08/M13 A3000 RMK AO2 P0000 T10831128 $
KINL 101915Z AUTO 32007KT 2SM -SN OVC018 M08/M13 A3000 RMK AO2 VIS 1 1/2V3 P0000 T10831128 $
KINL 101855Z AUTO 30005KT 3SM -SN OVC018 M08/M13 A3000 RMK AO2 SNB08 SLP184 P0000 T10831128 $
KINL 101838Z AUTO 32007KT 3SM -SN OVC016 M08/M13 A3000 RMK AO2 SNB08 P0000 T10831128 $
KINL 101829Z AUTO 35005KT 1 3/4SM -SN OVC017 M08/M12 A2999 RMK AO2 SNB08 P0000 T10831122 $
KINL 101822Z AUTO 33003KT 3SM -SN OVC015 M08/M12 A2999 RMK AO2 SNB08 P0000 T10831122 $
KINL 101807Z AUTO 35004KT 1 3/4SM HZ OVC015 M08/M13 A2999 RMK AO2 VIS 1V3 T10831128 $
KINL 101755Z AUTO 36005KT 3SM HZ OVC015 M09/M13 A2999 RMK AO2 SLP180 60000 T10891128 11083 21100 55002 $
KINL 101737Z AUTO 32004KT 5SM HZ OVC015 M09/M13 A2998 RMK AO2 T10891128 $
KINL 101655Z AUTO 33005KT 6SM HZ OVC014 M09/M12 A2998 RMK AO2 SLP178 T10891122 $
KINL 101653Z AUTO 33006KT 6SM HZ OVC014 M09/M12 A2998 RMK AO2 $
KINL 101555Z AUTO 32007KT 10SM OVC020 M09/M12 A2999 RMK AO2 SLP183 T10891122 $
KINL 101455Z AUTO 32005KT 5SM HZ BKN021 BKN060 OVC080 M09/M13 A2997 RMK AO2 SLP175 60000 T10941128 51020 $
KINL 101415Z AUTO 31005KT 9SM OVC016 M10/M13 A2995 RMK AO2 T11001128 $
KINL 101404Z AUTO 32008KT 7SM OVC014 M09/M13 A2995 RMK AO2 T10941128 $
KINL 101355Z AUTO 34008KT 6SM HZ OVC015 M09/M13 A2995 RMK AO2 SLP168 T10941133 $
KINL 101348Z AUTO 34007KT 8SM OVC015 M09/M13 A2995 RMK AO2 T10941133 $
KINL 101255Z AUTO 01007KT 4SM HZ OVC012 M09/M13 A2993 RMK AO2 SNE25 SLP162 P0000 T10941128 $
KINL 101247Z AUTO 01009KT 4SM HZ OVC012 M09/M13 A2992 RMK AO2 SNE25 P0000 T10941128 $
KINL 101212Z AUTO 01009KT 2SM -SN OVC013 M09/M12 A2991 RMK AO2 P0000 T10941122 $
KINL 101155Z AUTO 36009KT 3SM -SN OVC013 M09/M12 A2991 RMK AO2 SNB47 SLP154 P0000 60000 70001 T10891117 11083 21089 51023 $
KINL 101117Z AUTO 01007KT 6SM HZ OVC014 M09/M12 A2989 RMK AO2 T10891117 $
KINL 101055Z AUTO 01007KT 10SM FEW009 OVC017 M08/M11 A2989 RMK AO2 SLP146 T10831111 $
KINL 100955Z AUTO 34008KT 10SM OVC009 M08/M11 A2987 RMK AO2 SLP141 T10831106 $
KINL 100939Z AUTO 34007KT 10SM BKN009 OVC021 M08/M11 A2987 RMK AO2 T10831106 $
KINL 100931Z AUTO 34006KT 10SM SCT009 OVC021 M08/M11 A2986 RMK AO2 T10831106 $
KINL 100855Z AUTO 34008KT 10SM FEW010 OVC021 M08/M11 A2984 RMK AO2 SLP130 T10831111 53020 $
KINL 100845Z AUTO 34009KT 10SM SCT010 OVC020 M08/M11 A2983 RMK AO2 T10831111 $
KINL 100831Z AUTO 35005KT 10SM BKN009 OVC013 M08/M11 A2983 RMK AO2 T10831111 $
KINL 100755Z AUTO 36004KT 10SM OVC011 M08/M11 A2981 RMK AO2 SLP121 T10831111 $
KINL 100721Z AUTO 36004KT 10SM OVC013 M08/M11 A2980 RMK AO2 T10831111 $
KINL 100655Z AUTO 01003KT 10SM OVC015 M08/M11 A2979 RMK AO2 SLP115 T10831111 $
KINL 100555Z AUTO 02003KT 10SM OVC018 M08/M12 A2978 RMK AO2 SLP110 T10831117 11083 21100 410831128 55003 $
KINL 100455Z AUTO 00000KT 10SM OVC018 M08/M12 A2976 RMK AO2 SLP106 T10831117 $
KINL 100355Z AUTO 12003KT 10SM OVC019 M09/M12 A2976 RMK AO2 SLP103 T10891117 $
KINL 100255Z AUTO 13003KT 10SM OVC021 M09/M12 A2979 RMK AO2 SLP114 T10941122 56016 $
KINL 100155Z AUTO 13003KT 10SM OVC022 M09/M12 A2980 RMK AO2 SLP120 T10941122 $
KINL 100125Z AUTO 15003KT 10SM BKN021 OVC055 M09/M13 A2981 RMK AO2 T10941128